createdAt,value
2017-07-25T00:01:57.938Z,2.50
2017-07-25T00:04:26.075Z,2.40
2017-07-25T00:06:54.201Z,2.37
2017-07-25T00:09:22.368Z,2.40
2017-07-25T00:11:50.510Z,2.13
2017-07-25T00:14:18.681Z,1.73
2017-07-25T00:16:46.800Z,2.00
2017-07-25T00:19:14.944Z,1.67
2017-07-25T00:21:43.116Z,2.13
2017-07-25T00:24:11.256Z,1.97
2017-07-25T00:26:39.433Z,1.67
2017-07-25T00:29:07.566Z,1.73
2017-07-25T00:31:36.467Z,2.30
2017-07-25T00:34:05.390Z,1.63
2017-07-25T00:36:33.517Z,1.40
2017-07-25T00:39:02.453Z,1.83
2017-07-25T00:41:30.583Z,2.07
2017-07-25T00:43:59.469Z,1.53
2017-07-25T00:46:28.388Z,1.80
2017-07-25T00:48:56.513Z,1.60
2017-07-25T00:51:24.684Z,2.20
2017-07-25T00:53:52.848Z,1.60
2017-07-25T00:56:20.987Z,1.97
2017-07-25T00:58:49.151Z,1.57
2017-07-25T01:01:17.295Z,2.20
2017-07-25T01:03:45.453Z,1.43
2017-07-25T01:06:14.353Z,1.80
2017-07-25T01:08:43.290Z,2.10
2017-07-25T01:11:11.427Z,1.70
2017-07-25T01:13:39.555Z,2.17
2017-07-25T01:16:07.728Z,2.10
2017-07-25T01:18:35.852Z,1.90
2017-07-25T01:21:04.016Z,2.80
2017-07-25T01:23:32.142Z,2.07
2017-07-25T01:26:00.413Z,1.60
2017-07-25T01:28:28.549Z,2.50
2017-07-25T01:30:56.667Z,2.00
2017-07-25T01:33:24.826Z,2.20
2017-07-25T01:35:52.977Z,2.07
2017-07-25T01:38:21.161Z,2.10
2017-07-25T01:40:49.293Z,2.70
2017-07-25T01:43:17.566Z,1.63
2017-07-25T01:45:45.688Z,2.00
2017-07-25T01:48:13.811Z,2.50
2017-07-25T01:50:41.969Z,2.23
2017-07-25T01:53:10.089Z,2.70
2017-07-25T01:55:38.254Z,1.70
2017-07-25T01:58:06.388Z,2.30
2017-07-25T02:00:34.563Z,2.20
2017-07-25T02:03:02.723Z,1.93
2017-07-25T02:05:30.889Z,2.20
2017-07-25T02:07:59.779Z,2.10
2017-07-25T02:10:28.679Z,2.00
2017-07-25T02:12:56.840Z,1.90
2017-07-25T02:15:25.729Z,1.83
2017-07-25T02:17:54.665Z,1.70
2017-07-25T02:20:22.803Z,1.43
2017-07-25T02:22:50.921Z,1.67
2017-07-25T02:25:19.085Z,2.27
2017-07-25T02:27:47.284Z,2.03
2017-07-25T02:30:15.784Z,2.27
2017-07-25T02:32:43.910Z,4.13
2017-07-25T02:35:12.032Z,2.10
2017-07-25T02:37:40.190Z,2.23
2017-07-25T02:40:09.077Z,2.23
2017-07-25T02:42:38.031Z,1.70
2017-07-25T02:45:06.162Z,1.83
2017-07-25T02:47:34.727Z,2.63
2017-07-25T02:50:03.641Z,2.33
2017-07-25T02:52:31.763Z,2.60
2017-07-25T02:54:59.925Z,1.90
2017-07-25T02:57:28.056Z,2.10
2017-07-25T02:59:56.214Z,2.40
2017-07-25T03:02:24.358Z,2.00
2017-07-25T03:04:52.535Z,1.97
2017-07-25T03:07:21.417Z,2.20
2017-07-25T03:09:49.537Z,2.50
2017-07-25T03:12:17.684Z,2.93
2017-07-25T03:14:45.816Z,1.63
2017-07-25T03:17:13.983Z,1.77
2017-07-25T03:19:42.116Z,1.80
2017-07-25T03:22:10.292Z,1.97
2017-07-25T03:24:38.408Z,2.50
2017-07-25T03:27:06.528Z,2.37
2017-07-25T03:29:34.706Z,2.20
2017-07-25T03:32:02.846Z,1.70
2017-07-25T03:34:31.801Z,2.20
2017-07-25T03:36:59.939Z,2.20
2017-07-25T03:39:28.071Z,1.90
2017-07-25T03:41:56.993Z,1.87
2017-07-25T03:44:25.137Z,2.13
2017-07-25T03:46:54.075Z,1.80
2017-07-25T03:49:22.199Z,2.57
2017-07-25T03:51:51.134Z,2.20
2017-07-25T03:54:19.301Z,1.90
2017-07-25T03:56:47.436Z,2.30
2017-07-25T03:59:16.365Z,2.60
2017-07-25T04:01:44.489Z,2.20
2017-07-25T04:04:13.418Z,1.60
2017-07-25T04:06:41.567Z,2.20
2017-07-25T04:09:09.707Z,2.30
2017-07-25T04:11:37.869Z,2.23
2017-07-25T04:14:06.012Z,1.97
2017-07-25T04:16:34.191Z,1.63
2017-07-25T04:19:02.310Z,1.80
2017-07-25T04:21:31.255Z,2.60
2017-07-25T04:23:59.375Z,1.90
2017-07-25T04:26:28.296Z,2.37
2017-07-25T04:28:56.454Z,2.70
2017-07-25T04:31:24.596Z,2.20
2017-07-25T04:33:53.544Z,2.43
2017-07-25T04:36:21.685Z,1.60
2017-07-25T04:38:49.819Z,1.90
2017-07-25T04:41:17.979Z,1.80
2017-07-25T04:43:46.110Z,1.47
2017-07-25T04:46:14.275Z,1.60
2017-07-25T04:48:42.394Z,1.30
2017-07-25T04:51:10.566Z,1.70
2017-07-25T04:53:38.706Z,1.60
2017-07-25T04:56:06.828Z,1.80
2017-07-25T04:58:34.981Z,1.70
2017-07-25T05:01:03.114Z,2.20
2017-07-25T05:03:31.274Z,2.37
2017-07-25T05:05:59.404Z,2.20
2017-07-25T05:08:27.568Z,2.00
2017-07-25T05:10:55.695Z,2.77
2017-07-25T05:13:24.893Z,1.87
2017-07-25T05:15:53.014Z,2.37
2017-07-25T05:18:38.973Z,2.20
2017-07-25T05:21:07.093Z,1.90
2017-07-25T05:23:35.981Z,2.00
2017-07-25T05:26:04.918Z,1.73
2017-07-25T05:28:33.059Z,1.63
2017-07-25T05:31:01.205Z,1.60
2017-07-25T05:33:30.097Z,1.27
2017-07-25T05:35:59.044Z,1.80
2017-07-25T05:38:27.170Z,1.73
2017-07-25T05:40:55.295Z,1.87
2017-07-25T05:43:23.444Z,2.10
2017-07-25T05:45:51.573Z,1.50
2017-07-25T05:48:20.521Z,1.50
2017-07-25T05:50:48.636Z,1.60
2017-07-25T05:53:17.535Z,1.27
2017-07-25T05:55:45.699Z,1.23
2017-07-25T05:58:14.593Z,1.30
2017-07-25T06:00:42.783Z,1.27
2017-07-25T06:03:10.926Z,1.40
2017-07-25T06:05:39.830Z,1.20
2017-07-25T06:08:07.984Z,1.20
2017-07-25T06:10:36.874Z,1.30
2017-07-25T06:13:05.818Z,1.57
2017-07-25T06:15:33.936Z,1.17
2017-07-25T06:18:02.056Z,1.70
2017-07-25T06:20:30.205Z,1.53
2017-07-25T06:22:58.335Z,1.20
2017-07-25T06:25:26.523Z,1.40
2017-07-25T06:27:55.419Z,1.50
2017-07-25T06:30:24.301Z,1.70
2017-07-25T06:32:53.216Z,1.70
2017-07-25T06:35:21.346Z,1.70
2017-07-25T06:37:49.520Z,2.20
2017-07-25T06:40:17.654Z,2.20
2017-07-25T06:42:45.784Z,2.20
2017-07-25T06:45:13.950Z,2.50
2017-07-25T06:47:43.034Z,1.90
2017-07-25T06:50:11.978Z,1.70
2017-07-25T06:52:40.109Z,1.80
2017-07-25T06:55:09.001Z,2.00
2017-07-25T06:57:37.160Z,1.40
2017-07-25T07:00:06.054Z,2.23
2017-07-25T07:02:34.996Z,2.60
2017-07-25T07:05:03.135Z,3.00
2017-07-25T07:07:31.261Z,2.10
2017-07-25T07:09:59.426Z,2.60
2017-07-25T07:12:27.561Z,2.37
2017-07-25T07:14:55.734Z,2.57
2017-07-25T07:17:23.863Z,2.90
2017-07-25T07:19:52.763Z,2.00
2017-07-25T07:22:21.686Z,2.30
2017-07-25T07:24:49.808Z,2.40
2017-07-25T07:27:17.961Z,2.40
2017-07-25T07:29:46.082Z,2.00
2017-07-25T07:32:14.242Z,2.10
2017-07-25T07:34:42.375Z,2.30
2017-07-25T07:37:10.555Z,2.53
2017-07-25T07:39:38.686Z,3.07
2017-07-25T07:42:06.823Z,2.70
2017-07-25T07:44:35.750Z,2.53
2017-07-25T07:47:03.868Z,2.80
2017-07-25T07:49:32.805Z,2.87
2017-07-25T07:52:00.928Z,2.53
2017-07-25T07:54:29.869Z,2.80
2017-07-25T07:56:58.054Z,4.20
2017-07-25T07:59:26.218Z,2.87
2017-07-25T08:01:54.397Z,3.00
2017-07-25T08:04:22.524Z,3.40
2017-07-25T08:06:51.424Z,2.80
2017-07-25T08:09:19.590Z,3.67
2017-07-25T08:11:47.705Z,3.23
2017-07-25T08:14:15.867Z,3.40
2017-07-25T08:16:43.984Z,3.30
2017-07-25T08:19:12.901Z,2.90
2017-07-25T08:21:41.036Z,3.07
2017-07-25T08:24:09.195Z,3.50
2017-07-25T08:26:37.328Z,3.40
2017-07-25T08:29:05.504Z,2.80
2017-07-25T08:31:33.624Z,2.20
2017-07-25T08:34:01.741Z,2.80
2017-07-25T08:36:29.889Z,5.20
2017-07-25T08:38:58.023Z,3.70
2017-07-25T08:41:26.195Z,2.10
2017-07-25T08:43:54.324Z,2.80
2017-07-25T08:46:22.454Z,2.37
2017-07-25T08:48:51.378Z,2.30
2017-07-25T08:51:19.514Z,2.83
2017-07-25T08:53:48.452Z,2.60
2017-07-25T08:56:16.677Z,2.70
2017-07-25T08:58:45.563Z,2.00
2017-07-25T09:01:14.044Z,2.20
2017-07-25T09:03:42.942Z,2.63
2017-07-25T09:06:11.870Z,2.50
2017-07-25T09:08:40.002Z,3.10
2017-07-25T09:11:08.921Z,2.47
2017-07-25T09:13:37.055Z,2.20
2017-07-25T09:16:06.006Z,2.70
2017-07-25T09:18:34.124Z,2.87
2017-07-25T09:21:03.024Z,2.53
2017-07-25T09:23:31.177Z,2.37
2017-07-25T09:26:00.070Z,2.30
2017-07-25T09:28:29.003Z,2.77
2017-07-25T09:30:57.119Z,2.57
2017-07-25T09:33:25.250Z,3.07
2017-07-25T09:35:53.419Z,2.57
2017-07-25T09:38:21.537Z,2.30
2017-07-25T09:40:49.699Z,2.97
2017-07-25T09:43:17.833Z,2.80
2017-07-25T09:45:46.009Z,3.10
2017-07-25T09:48:14.149Z,2.90
2017-07-25T09:50:42.322Z,3.50
2017-07-25T09:53:10.468Z,3.50
2017-07-25T09:55:39.366Z,2.40
2017-07-25T09:58:08.300Z,3.27
2017-07-25T10:00:36.439Z,2.87
2017-07-25T10:03:04.617Z,2.40
2017-07-25T10:05:32.733Z,2.80
2017-07-25T10:08:00.870Z,2.77
2017-07-25T10:10:29.035Z,2.30
2017-07-25T10:12:57.155Z,2.87
2017-07-25T10:15:25.321Z,2.00
2017-07-25T10:17:53.454Z,2.50
2017-07-25T10:20:21.584Z,2.30
2017-07-25T10:22:49.746Z,1.90
2017-07-25T10:25:17.881Z,2.13
2017-07-25T10:27:46.065Z,2.00
2017-07-25T10:30:14.183Z,2.03
2017-07-25T10:32:43.103Z,1.70
2017-07-25T10:35:11.233Z,1.90
2017-07-25T10:37:39.403Z,2.10
2017-07-25T10:40:07.530Z,1.63
2017-07-25T10:42:35.701Z,1.60
2017-07-25T10:45:03.835Z,2.80
2017-07-25T10:47:32.738Z,1.70
2017-07-25T10:50:00.888Z,2.33
2017-07-25T10:52:29.789Z,1.90
2017-07-25T10:54:58.721Z,1.90
2017-07-25T10:57:26.875Z,1.50
2017-07-25T10:59:55.030Z,1.73
2017-07-25T11:02:23.150Z,1.50
2017-07-25T11:04:51.307Z,1.47
2017-07-25T11:07:19.438Z,1.27
2017-07-25T11:09:47.618Z,1.37
2017-07-25T11:12:15.737Z,1.77
2017-07-25T11:14:43.864Z,1.70
2017-07-25T11:17:12.024Z,1.20
2017-07-25T11:19:40.154Z,1.40
2017-07-25T11:22:08.330Z,1.50
2017-07-25T11:24:36.457Z,1.57
2017-07-25T11:27:04.579Z,1.33
2017-07-25T11:29:32.733Z,1.30
2017-07-25T11:32:00.866Z,1.70
2017-07-25T11:34:29.030Z,1.40
2017-07-25T11:36:57.155Z,1.33
2017-07-25T11:39:25.313Z,1.40
2017-07-25T11:41:53.437Z,1.20
2017-07-25T11:44:21.585Z,1.20
2017-07-25T11:46:49.744Z,1.30
2017-07-25T11:49:17.874Z,1.73
2017-07-25T11:51:46.068Z,1.43
2017-07-25T11:54:14.184Z,1.40
2017-07-25T11:56:43.069Z,1.30
2017-07-25T11:59:12.019Z,1.40
2017-07-25T12:01:40.137Z,0.90
2017-07-25T12:04:08.287Z,1.20
2017-07-25T12:06:36.414Z,1.23
2017-07-25T12:09:04.582Z,1.20
2017-07-25T12:11:32.790Z,1.80
2017-07-25T12:14:00.917Z,1.30
2017-07-25T12:16:29.065Z,1.37
2017-07-25T12:18:57.964Z,1.70
2017-07-25T12:21:39.787Z,1.47
2017-07-25T12:24:07.927Z,1.30
2017-07-25T12:26:36.052Z,1.33
2017-07-25T12:29:04.235Z,1.20
2017-07-25T12:31:32.379Z,1.27
2017-07-25T12:34:00.564Z,1.43
2017-07-25T12:36:28.702Z,1.40
2017-07-25T12:38:56.832Z,1.87
2017-07-25T12:41:25.768Z,1.60
2017-07-25T12:43:53.892Z,1.80
2017-07-25T12:46:22.046Z,2.00
2017-07-25T12:48:50.185Z,2.00
2017-07-25T12:51:18.350Z,2.20
2017-07-25T12:53:46.474Z,2.13
2017-07-25T12:56:14.646Z,2.13
2017-07-25T12:58:42.802Z,3.10
2017-07-25T13:01:37.397Z,2.50
2017-07-25T13:04:05.522Z,2.10
2017-07-25T13:06:33.657Z,1.60
2017-07-25T13:09:01.823Z,2.10
2017-07-25T13:11:29.945Z,1.73
2017-07-25T13:13:58.122Z,2.20
2017-07-25T13:16:26.240Z,1.90
2017-07-25T13:18:55.146Z,2.40
2017-07-25T13:21:23.302Z,2.30
2017-07-25T13:23:52.202Z,2.80
2017-07-25T13:26:20.389Z,2.20
2017-07-25T13:28:48.508Z,2.30
2017-07-25T13:31:16.649Z,2.23
2017-07-25T13:33:44.796Z,2.83
2017-07-25T13:36:12.931Z,2.40
2017-07-25T13:38:41.092Z,2.10
2017-07-25T13:41:09.222Z,3.40
2017-07-25T13:43:37.575Z,2.77
2017-07-25T13:46:06.469Z,2.73
2017-07-25T13:48:35.370Z,2.20
2017-07-25T13:51:03.520Z,2.97
2017-07-25T13:53:32.408Z,4.37
2017-07-25T13:56:01.350Z,3.20
2017-07-25T13:58:29.474Z,2.33
2017-07-25T14:00:58.369Z,3.00
2017-07-25T14:03:27.346Z,3.07
2017-07-25T14:05:56.241Z,2.10
2017-07-25T14:08:25.176Z,3.20
2017-07-25T14:10:53.315Z,2.80
2017-07-25T14:13:21.460Z,2.50
2017-07-25T14:15:49.608Z,2.83
2017-07-25T14:18:17.743Z,2.43
2017-07-25T14:20:45.906Z,2.80
2017-07-25T14:23:14.029Z,3.60
2017-07-25T14:25:42.210Z,3.30
2017-07-25T14:28:10.328Z,3.70
2017-07-25T14:30:38.460Z,3.10
2017-07-25T14:33:06.604Z,3.37
2017-07-25T14:35:34.733Z,3.07
2017-07-25T14:38:02.899Z,3.50
2017-07-25T14:40:31.022Z,3.97
2017-07-25T14:42:59.159Z,3.17
2017-07-25T14:45:27.394Z,2.40
2017-07-25T14:47:55.517Z,4.10
2017-07-25T14:50:23.677Z,3.00
2017-07-25T14:52:51.801Z,3.80
2017-07-25T14:55:19.977Z,3.30
2017-07-25T14:57:48.098Z,3.57
2017-07-25T15:00:16.243Z,3.47
2017-07-25T15:02:44.410Z,4.70
2017-07-25T15:05:13.308Z,3.83
2017-07-25T15:07:41.471Z,4.20
2017-07-25T15:10:10.375Z,4.63
2017-07-25T15:12:38.618Z,3.83
2017-07-25T15:15:07.517Z,3.97
2017-07-25T15:17:36.422Z,3.10
2017-07-25T15:20:04.588Z,3.70
2017-07-25T15:22:32.706Z,4.70
2017-07-25T15:25:00.873Z,5.80
2017-07-25T15:27:29.008Z,4.97
2017-07-25T15:29:57.140Z,4.50
2017-07-25T15:32:25.288Z,4.23
2017-07-25T15:34:53.439Z,6.00
2017-07-25T15:37:21.606Z,4.10
2017-07-25T15:39:49.736Z,4.50
2017-07-25T15:42:17.856Z,4.93
2017-07-25T15:44:46.022Z,4.40
2017-07-25T15:47:14.157Z,5.73
2017-07-25T15:49:43.089Z,4.70
2017-07-25T15:52:11.214Z,7.50
2017-07-25T15:54:39.387Z,4.03
2017-07-25T15:57:08.296Z,4.83
2017-07-25T15:59:36.453Z,4.90
2017-07-25T16:02:04.633Z,3.63
2017-07-25T16:04:33.539Z,3.73
2017-07-25T16:07:01.724Z,3.47
2017-07-25T16:09:29.854Z,2.77
2017-07-25T16:11:58.761Z,2.00
2017-07-25T16:14:26.939Z,2.10
2017-07-25T16:16:55.084Z,1.50
2017-07-25T16:19:23.355Z,1.73
2017-07-25T16:21:51.491Z,2.03
2017-07-25T16:24:19.635Z,2.00
2017-07-25T16:26:48.767Z,2.30
2017-07-25T16:29:16.898Z,2.40
2017-07-25T16:31:45.073Z,3.00
2017-07-25T16:34:13.208Z,2.90
2017-07-25T16:36:41.322Z,3.80
2017-07-25T16:39:09.496Z,3.37
2017-07-25T16:41:37.614Z,3.40
2017-07-25T16:44:05.769Z,3.97
2017-07-25T16:46:33.888Z,4.00
2017-07-25T16:49:02.058Z,3.70
2017-07-25T16:51:30.195Z,3.20
2017-07-25T16:53:58.332Z,3.47
2017-07-25T16:56:26.553Z,3.60
2017-07-25T16:58:55.455Z,4.30
2017-07-25T17:01:24.418Z,4.00
2017-07-25T17:03:52.545Z,4.40
2017-07-25T17:06:20.728Z,3.40
2017-07-25T17:08:48.859Z,3.23
2017-07-25T17:11:17.004Z,4.67
2017-07-25T17:13:45.184Z,4.23
2017-07-25T17:16:13.322Z,3.17
2017-07-25T17:18:41.534Z,3.83
2017-07-25T17:21:10.420Z,4.43
2017-07-25T17:23:38.590Z,4.53
2017-07-25T17:26:06.708Z,4.37
2017-07-25T17:28:34.828Z,3.43
2017-07-25T17:31:02.980Z,3.27
2017-07-25T17:33:31.101Z,3.80
2017-07-25T17:35:59.250Z,4.20
2017-07-25T17:38:28.149Z,4.57
2017-07-25T17:40:57.080Z,5.37
2017-07-25T17:43:25.236Z,5.37
2017-07-25T17:45:53.384Z,3.57
2017-07-25T17:48:22.364Z,4.07
2017-07-25T17:50:51.270Z,5.10
2017-07-25T17:53:19.406Z,3.60
2017-07-25T17:55:47.567Z,4.33
2017-07-25T17:58:15.703Z,2.60
2017-07-25T18:00:43.940Z,3.83
2017-07-25T18:03:12.855Z,3.20
2017-07-25T18:05:41.014Z,4.63
2017-07-25T18:08:09.178Z,3.83
2017-07-25T18:10:38.083Z,3.17
2017-07-25T18:13:06.239Z,2.73
2017-07-25T18:15:34.368Z,2.97
2017-07-25T18:18:02.537Z,2.40
2017-07-25T18:20:30.672Z,3.07
2017-07-25T18:22:58.923Z,3.60
2017-07-25T18:25:27.110Z,2.80
2017-07-25T18:27:55.352Z,2.60
2017-07-25T18:30:23.578Z,2.10
2017-07-25T18:32:51.733Z,2.83
2017-07-25T18:35:20.686Z,3.00
2017-07-25T18:37:49.998Z,2.20
2017-07-25T18:40:18.580Z,2.07
2017-07-25T18:42:47.061Z,2.83
2017-07-25T18:45:15.547Z,2.00
2017-07-25T18:47:44.222Z,1.90
2017-07-25T18:50:23.044Z,2.10
2017-07-25T18:52:52.310Z,2.20
2017-07-25T18:55:22.891Z,2.57
2017-07-25T18:57:52.984Z,1.97
2017-07-25T19:00:22.149Z,2.40
2017-07-25T19:02:51.231Z,2.10
2017-07-25T19:05:20.491Z,1.67
2017-07-25T19:07:50.329Z,2.23
2017-07-25T19:10:20.466Z,2.60
2017-07-25T19:12:49.961Z,1.73
2017-07-25T19:15:20.084Z,2.33
2017-07-25T19:17:49.775Z,2.10
2017-07-25T19:20:19.760Z,2.10
2017-07-25T19:22:49.231Z,2.13
2017-07-25T19:25:19.077Z,2.03
2017-07-25T19:27:48.976Z,2.53
2017-07-25T19:30:18.908Z,2.53
2017-07-25T19:32:48.708Z,2.50
2017-07-25T19:35:18.463Z,1.90
2017-07-25T19:37:48.552Z,2.57
2017-07-25T19:40:18.956Z,2.17
2017-07-25T19:42:48.882Z,2.20
2017-07-25T19:45:19.600Z,2.77
2017-07-25T19:47:49.253Z,2.80
2017-07-25T19:50:18.375Z,2.43
2017-07-25T19:52:47.615Z,3.37
2017-07-25T19:55:16.822Z,2.60
2017-07-25T19:57:47.670Z,2.20
2017-07-25T20:00:17.236Z,2.10
2017-07-25T20:02:46.713Z,2.90
2017-07-25T20:05:26.062Z,2.50
2017-07-25T20:07:54.978Z,2.13
2017-07-25T20:10:23.464Z,3.33
2017-07-25T20:12:52.009Z,3.53
2017-07-25T20:15:20.693Z,2.40
2017-07-25T20:17:48.845Z,2.30
2017-07-25T20:20:17.274Z,2.47
2017-07-25T20:22:45.482Z,2.17
2017-07-25T20:25:13.644Z,2.17
2017-07-25T20:27:41.829Z,2.13
2017-07-25T20:30:09.983Z,2.50
2017-07-25T20:32:38.166Z,2.93
2017-07-25T20:35:06.303Z,2.07
2017-07-25T20:37:34.451Z,3.40
2017-07-25T20:40:03.385Z,3.10
2017-07-25T20:42:31.519Z,2.90
2017-07-25T20:45:00.456Z,3.20
2017-07-25T20:47:28.609Z,3.47
2017-07-25T20:49:56.728Z,3.23
2017-07-25T20:52:24.892Z,2.97
2017-07-25T20:54:53.034Z,3.30
2017-07-25T20:57:21.180Z,3.73
2017-07-25T20:59:49.427Z,3.30
2017-07-25T21:02:18.374Z,3.57
2017-07-25T21:04:46.515Z,3.90
2017-07-25T21:07:14.628Z,4.60
2017-07-25T21:09:42.800Z,3.80
2017-07-25T21:12:10.933Z,3.10
2017-07-25T21:14:39.089Z,4.03
2017-07-25T21:17:07.973Z,3.57
2017-07-25T21:19:36.953Z,4.20
2017-07-25T21:22:05.068Z,3.73
2017-07-25T21:24:33.227Z,3.63
2017-07-25T21:27:01.346Z,3.40
2017-07-25T21:29:29.491Z,2.87
2017-07-25T21:31:57.663Z,3.53
2017-07-25T21:34:25.788Z,3.60
2017-07-25T21:36:54.719Z,3.53
2017-07-25T21:39:22.854Z,3.30
2017-07-25T21:41:52.038Z,3.03
2017-07-25T21:44:20.955Z,2.90
2017-07-25T21:46:49.098Z,3.23
2017-07-25T21:49:18.025Z,2.70
2017-07-25T21:51:46.160Z,3.30
2017-07-25T21:54:14.358Z,3.33
2017-07-25T21:56:42.493Z,3.70
2017-07-25T21:59:10.613Z,3.30
2017-07-25T22:02:08.401Z,2.70
2017-07-25T22:04:54.353Z,3.23
2017-07-25T22:07:22.476Z,3.27
2017-07-25T22:09:50.602Z,2.43
2017-07-25T22:12:18.749Z,2.70
2017-07-25T22:14:47.655Z,2.87
2017-07-25T22:17:15.831Z,3.20
2017-07-25T22:19:43.966Z,3.97
2017-07-25T22:22:12.922Z,3.30
2017-07-25T22:24:41.066Z,4.07
2017-07-25T22:27:09.185Z,3.17
2017-07-25T22:29:37.354Z,3.53
2017-07-25T22:32:05.473Z,4.00
2017-07-25T22:34:33.646Z,3.60
2017-07-25T22:37:01.779Z,3.20
2017-07-25T22:39:29.901Z,4.70
2017-07-25T22:41:58.061Z,3.40
2017-07-25T22:44:26.177Z,3.70
2017-07-25T22:46:54.341Z,4.00
2017-07-25T22:49:22.469Z,4.20
2017-07-25T22:51:50.605Z,4.23
2017-07-25T22:54:18.769Z,3.53
2017-07-25T22:56:46.892Z,3.27
2017-07-25T22:59:15.075Z,3.47
2017-07-25T23:01:43.198Z,3.33
2017-07-25T23:04:11.327Z,3.33
2017-07-25T23:06:39.484Z,3.50
2017-07-25T23:09:07.617Z,3.43
2017-07-25T23:11:35.988Z,2.97
2017-07-25T23:14:04.115Z,2.60
2017-07-25T23:16:32.238Z,2.70
2017-07-25T23:19:01.161Z,3.30
2017-07-25T23:21:29.329Z,3.00
2017-07-25T23:23:57.489Z,3.20
2017-07-25T23:26:25.622Z,2.60
2017-07-25T23:28:53.803Z,2.70
2017-07-25T23:31:21.934Z,2.40
2017-07-25T23:33:50.070Z,2.90
2017-07-25T23:36:18.992Z,3.37
2017-07-25T23:38:47.117Z,3.13
2017-07-25T23:41:16.058Z,4.17
2017-07-25T23:43:44.211Z,2.97
2017-07-25T23:46:12.337Z,3.10
2017-07-25T23:48:40.503Z,3.33
2017-07-25T23:51:08.682Z,2.87
2017-07-25T23:53:36.921Z,2.87
2017-07-25T23:56:05.089Z,2.43
2017-07-25T23:58:33.207Z,3.27
